sensor_id;sensor_type;location;lat;lon;timestamp;P1;durP1;ratioP1;P2;durP2;ratioP2
19800;SDS011;10060;48.274;12.214;2024-03-07T00:00:35;27.03;;;16.63;;
19800;SDS011;10060;48.274;12.214;2024-03-07T00:03:37;25.93;;;16.63;;
19800;SDS011;10060;48.274;12.214;2024-03-07T00:06:40;25.37;;;16.43;;
19800;SDS011;10060;48.274;12.214;2024-03-07T00:09:42;28.40;;;17.57;;
19800;SDS011;10060;48.274;12.214;2024-03-07T00:12:46;27.57;;;17.40;;
19800;SDS011;10060;48.274;12.214;2024-03-07T00:15:48;27.17;;;16.37;;
19800;SDS011;10060;48.274;12.214;2024-03-07T00:18:50;28.20;;;16.77;;
19800;SDS011;10060;48.274;12.214;2024-03-07T00:21:53;32.67;;;18.50;;
19800;SDS011;10060;48.274;12.214;2024-03-07T00:24:55;32.20;;;18.37;;
19800;SDS011;10060;48.274;12.214;2024-03-07T00:27:58;30.90;;;18.50;;
19800;SDS011;10060;48.274;12.214;2024-03-07T00:31:03;28.33;;;17.80;;
19800;SDS011;10060;48.274;12.214;2024-03-07T00:34:07;32.90;;;19.63;;
19800;SDS011;10060;48.274;12.214;2024-03-07T00:37:10;29.17;;;18.47;;
19800;SDS011;10060;48.274;12.214;2024-03-07T00:40:13;31.60;;;18.00;;
19800;SDS011;10060;48.274;12.214;2024-03-07T00:43:16;31.17;;;18.97;;
19800;SDS011;10060;48.274;12.214;2024-03-07T00:46:18;32.77;;;19.30;;
19800;SDS011;10060;48.274;12.214;2024-03-07T00:49:20;32.40;;;18.87;;
19800;SDS011;10060;48.274;12.214;2024-03-07T00:52:22;34.40;;;19.77;;
19800;SDS011;10060;48.274;12.214;2024-03-07T00:55:25;35.60;;;20.57;;
19800;SDS011;10060;48.274;12.214;2024-03-07T00:58:28;31.03;;;18.47;;
19800;SDS011;10060;48.274;12.214;2024-03-07T01:01:31;34.27;;;19.27;;
19800;SDS011;10060;48.274;12.214;2024-03-07T01:04:35;32.50;;;19.67;;
19800;SDS011;10060;48.274;12.214;2024-03-07T01:07:38;36.27;;;20.20;;
19800;SDS011;10060;48.274;12.214;2024-03-07T01:10:41;32.97;;;19.17;;
19800;SDS011;10060;48.274;12.214;2024-03-07T01:13:45;34.93;;;20.30;;
19800;SDS011;10060;48.274;12.214;2024-03-07T01:16:47;36.67;;;20.23;;
19800;SDS011;10060;48.274;12.214;2024-03-07T01:19:49;33.70;;;20.23;;
19800;SDS011;10060;48.274;12.214;2024-03-07T01:22:51;36.10;;;20.43;;
19800;SDS011;10060;48.274;12.214;2024-03-07T01:25:54;38.50;;;21.07;;
19800;SDS011;10060;48.274;12.214;2024-03-07T01:28:58;36.70;;;20.23;;
19800;SDS011;10060;48.274;12.214;2024-03-07T01:32:01;31.73;;;19.17;;
19800;SDS011;10060;48.274;12.214;2024-03-07T01:35:03;33.30;;;20.50;;
19800;SDS011;10060;48.274;12.214;2024-03-07T01:38:07;36.33;;;21.17;;
19800;SDS011;10060;48.274;12.214;2024-03-07T01:41:10;36.17;;;19.23;;
19800;SDS011;10060;48.274;12.214;2024-03-07T01:44:15;34.57;;;19.83;;
19800;SDS011;10060;48.274;12.214;2024-03-07T01:47:17;33.60;;;19.97;;
19800;SDS011;10060;48.274;12.214;2024-03-07T01:50:19;38.70;;;20.73;;
19800;SDS011;10060;48.274;12.214;2024-03-07T01:53:22;36.17;;;20.73;;
19800;SDS011;10060;48.274;12.214;2024-03-07T01:56:24;36.07;;;20.60;;
19800;SDS011;10060;48.274;12.214;2024-03-07T01:59:28;34.90;;;20.87;;
19800;SDS011;10060;48.274;12.214;2024-03-07T02:02:32;34.37;;;20.27;;
19800;SDS011;10060;48.274;12.214;2024-03-07T02:05:34;34.97;;;19.87;;
19800;SDS011;10060;48.274;12.214;2024-03-07T02:08:36;36.53;;;21.20;;
19800;SDS011;10060;48.274;12.214;2024-03-07T02:11:39;34.10;;;19.97;;
19800;SDS011;10060;48.274;12.214;2024-03-07T02:14:42;37.70;;;19.77;;
19800;SDS011;10060;48.274;12.214;2024-03-07T02:17:44;35.20;;;19.63;;
19800;SDS011;10060;48.274;12.214;2024-03-07T02:20:47;37.27;;;20.33;;
19800;SDS011;10060;48.274;12.214;2024-03-07T02:23:49;34.23;;;19.83;;
19800;SDS011;10060;48.274;12.214;2024-03-07T02:26:53;34.43;;;20.23;;
19800;SDS011;10060;48.274;12.214;2024-03-07T02:29:55;36.60;;;20.53;;
19800;SDS011;10060;48.274;12.214;2024-03-07T02:32:57;38.07;;;21.27;;
19800;SDS011;10060;48.274;12.214;2024-03-07T02:36:07;33.27;;;19.67;;
19800;SDS011;10060;48.274;12.214;2024-03-07T02:39:09;35.20;;;20.17;;
19800;SDS011;10060;48.274;12.214;2024-03-07T02:42:12;38.10;;;20.20;;
19800;SDS011;10060;48.274;12.214;2024-03-07T02:45:14;34.93;;;20.00;;
19800;SDS011;10060;48.274;12.214;2024-03-07T02:48:16;37.97;;;20.77;;
19800;SDS011;10060;48.274;12.214;2024-03-07T02:51:19;39.43;;;21.40;;
19800;SDS011;10060;48.274;12.214;2024-03-07T02:54:21;42.97;;;22.53;;
19800;SDS011;10060;48.274;12.214;2024-03-07T02:57:23;42.57;;;23.30;;
19800;SDS011;10060;48.274;12.214;2024-03-07T03:00:26;42.87;;;23.80;;
19800;SDS011;10060;48.274;12.214;2024-03-07T03:03:29;41.43;;;23.03;;
19800;SDS011;10060;48.274;12.214;2024-03-07T03:06:33;42.67;;;23.77;;
19800;SDS011;10060;48.274;12.214;2024-03-07T03:09:35;51.57;;;27.77;;
19800;SDS011;10060;48.274;12.214;2024-03-07T03:12:39;55.43;;;28.73;;
19800;SDS011;10060;48.274;12.214;2024-03-07T03:15:42;54.67;;;27.60;;
19800;SDS011;10060;48.274;12.214;2024-03-07T03:18:44;62.20;;;33.67;;
19800;SDS011;10060;48.274;12.214;2024-03-07T03:21:49;66.90;;;35.37;;
19800;SDS011;10060;48.274;12.214;2024-03-07T03:24:52;70.27;;;36.40;;
19800;SDS011;10060;48.274;12.214;2024-03-07T03:27:55;66.67;;;35.90;;
19800;SDS011;10060;48.274;12.214;2024-03-07T03:30:58;73.97;;;37.83;;
19800;SDS011;10060;48.274;12.214;2024-03-07T03:34:00;71.97;;;38.03;;
19800;SDS011;10060;48.274;12.214;2024-03-07T03:37:03;66.73;;;35.87;;
19800;SDS011;10060;48.274;12.214;2024-03-07T03:40:06;68.37;;;36.87;;
19800;SDS011;10060;48.274;12.214;2024-03-07T03:43:09;69.93;;;34.70;;
19800;SDS011;10060;48.274;12.214;2024-03-07T03:46:11;69.63;;;35.33;;
19800;SDS011;10060;48.274;12.214;2024-03-07T03:49:13;65.43;;;35.27;;
19800;SDS011;10060;48.274;12.214;2024-03-07T03:52:17;65.37;;;34.97;;
19800;SDS011;10060;48.274;12.214;2024-03-07T03:55:19;71.40;;;36.50;;
19800;SDS011;10060;48.274;12.214;2024-03-07T03:58:21;69.13;;;36.17;;
19800;SDS011;10060;48.274;12.214;2024-03-07T04:01:23;71.13;;;37.37;;
19800;SDS011;10060;48.274;12.214;2024-03-07T04:04:26;65.37;;;35.67;;
19800;SDS011;10060;48.274;12.214;2024-03-07T04:07:29;64.73;;;34.57;;
19800;SDS011;10060;48.274;12.214;2024-03-07T04:10:32;68.13;;;35.30;;
19800;SDS011;10060;48.274;12.214;2024-03-07T04:13:34;73.90;;;35.93;;
19800;SDS011;10060;48.274;12.214;2024-03-07T04:16:36;69.23;;;35.43;;
19800;SDS011;10060;48.274;12.214;2024-03-07T04:19:39;67.27;;;35.17;;
19800;SDS011;10060;48.274;12.214;2024-03-07T04:22:43;67.27;;;36.03;;
19800;SDS011;10060;48.274;12.214;2024-03-07T04:25:45;63.10;;;33.73;;
19800;SDS011;10060;48.274;12.214;2024-03-07T04:28:47;71.47;;;35.23;;
19800;SDS011;10060;48.274;12.214;2024-03-07T04:31:50;67.17;;;34.60;;
19800;SDS011;10060;48.274;12.214;2024-03-07T04:34:52;66.90;;;34.10;;
19800;SDS011;10060;48.274;12.214;2024-03-07T04:37:58;69.17;;;35.60;;
19800;SDS011;10060;48.274;12.214;2024-03-07T04:41:00;67.47;;;34.60;;
19800;SDS011;10060;48.274;12.214;2024-03-07T04:44:03;66.03;;;35.23;;
19800;SDS011;10060;48.274;12.214;2024-03-07T04:47:06;64.20;;;33.60;;
19800;SDS011;10060;48.274;12.214;2024-03-07T04:50:08;65.33;;;34.97;;
19800;SDS011;10060;48.274;12.214;2024-03-07T04:53:12;66.37;;;33.13;;
19800;SDS011;10060;48.274;12.214;2024-03-07T04:56:14;61.87;;;33.43;;
19800;SDS011;10060;48.274;12.214;2024-03-07T04:59:16;65.60;;;34.90;;
19800;SDS011;10060;48.274;12.214;2024-03-07T05:02:19;64.13;;;34.37;;
19800;SDS011;10060;48.274;12.214;2024-03-07T05:05:22;69.30;;;35.40;;
19800;SDS011;10060;48.274;12.214;2024-03-07T05:08:27;67.70;;;33.40;;
19800;SDS011;10060;48.274;12.214;2024-03-07T05:11:29;66.37;;;32.90;;
19800;SDS011;10060;48.274;12.214;2024-03-07T05:14:31;58.70;;;31.80;;
19800;SDS011;10060;48.274;12.214;2024-03-07T05:17:33;59.73;;;31.57;;
19800;SDS011;10060;48.274;12.214;2024-03-07T05:20:37;55.50;;;31.13;;
19800;SDS011;10060;48.274;12.214;2024-03-07T05:23:41;65.43;;;33.73;;
19800;SDS011;10060;48.274;12.214;2024-03-07T05:26:43;62.93;;;32.93;;
19800;SDS011;10060;48.274;12.214;2024-03-07T05:29:45;63.57;;;32.87;;
19800;SDS011;10060;48.274;12.214;2024-03-07T05:32:47;66.93;;;31.77;;
19800;SDS011;10060;48.274;12.214;2024-03-07T05:35:49;63.93;;;32.33;;
19800;SDS011;10060;48.274;12.214;2024-03-07T05:39:04;63.50;;;33.13;;
19800;SDS011;10060;48.274;12.214;2024-03-07T05:42:11;62.33;;;31.70;;
19800;SDS011;10060;48.274;12.214;2024-03-07T05:45:14;59.23;;;32.67;;
19800;SDS011;10060;48.274;12.214;2024-03-07T05:48:18;63.37;;;33.13;;
19800;SDS011;10060;48.274;12.214;2024-03-07T05:51:20;63.57;;;33.43;;
19800;SDS011;10060;48.274;12.214;2024-03-07T05:54:23;60.23;;;32.07;;
19800;SDS011;10060;48.274;12.214;2024-03-07T05:57:26;56.87;;;29.47;;
19800;SDS011;10060;48.274;12.214;2024-03-07T06:00:28;56.13;;;32.03;;
19800;SDS011;10060;48.274;12.214;2024-03-07T06:03:30;57.53;;;30.90;;
19800;SDS011;10060;48.274;12.214;2024-03-07T06:06:32;55.23;;;30.53;;
19800;SDS011;10060;48.274;12.214;2024-03-07T06:09:36;59.03;;;32.33;;
19800;SDS011;10060;48.274;12.214;2024-03-07T06:12:38;58.23;;;31.50;;
19800;SDS011;10060;48.274;12.214;2024-03-07T06:15:45;60.77;;;31.20;;
19800;SDS011;10060;48.274;12.214;2024-03-07T06:18:48;60.73;;;31.43;;
19800;SDS011;10060;48.274;12.214;2024-03-07T06:21:52;56.13;;;29.07;;
19800;SDS011;10060;48.274;12.214;2024-03-07T06:24:57;54.37;;;29.77;;
19800;SDS011;10060;48.274;12.214;2024-03-07T06:28:06;61.63;;;31.17;;
19800;SDS011;10060;48.274;12.214;2024-03-07T06:31:11;61.33;;;31.70;;
19800;SDS011;10060;48.274;12.214;2024-03-07T06:34:13;60.27;;;30.97;;
19800;SDS011;10060;48.274;12.214;2024-03-07T06:37:15;61.70;;;31.00;;
19800;SDS011;10060;48.274;12.214;2024-03-07T06:40:20;62.60;;;31.63;;
19800;SDS011;10060;48.274;12.214;2024-03-07T06:43:22;57.43;;;31.20;;
19800;SDS011;10060;48.274;12.214;2024-03-07T06:46:24;61.00;;;30.37;;
19800;SDS011;10060;48.274;12.214;2024-03-07T06:49:26;60.77;;;29.90;;
19800;SDS011;10060;48.274;12.214;2024-03-07T06:52:29;58.63;;;30.63;;
19800;SDS011;10060;48.274;12.214;2024-03-07T06:55:33;58.80;;;30.80;;
19800;SDS011;10060;48.274;12.214;2024-03-07T06:58:35;62.83;;;31.37;;
19800;SDS011;10060;48.274;12.214;2024-03-07T07:01:37;64.83;;;31.80;;
19800;SDS011;10060;48.274;12.214;2024-03-07T07:04:43;59.70;;;31.53;;
19800;SDS011;10060;48.274;12.214;2024-03-07T07:07:47;59.00;;;32.03;;
19800;SDS011;10060;48.274;12.214;2024-03-07T07:10:52;65.43;;;32.33;;
19800;SDS011;10060;48.274;12.214;2024-03-07T07:13:56;60.27;;;32.10;;
19800;SDS011;10060;48.274;12.214;2024-03-07T07:16:58;60.23;;;30.57;;
19800;SDS011;10060;48.274;12.214;2024-03-07T07:20:00;60.63;;;31.87;;
19800;SDS011;10060;48.274;12.214;2024-03-07T07:23:09;62.30;;;30.97;;
19800;SDS011;10060;48.274;12.214;2024-03-07T07:26:14;59.63;;;30.20;;
19800;SDS011;10060;48.274;12.214;2024-03-07T07:29:16;58.27;;;30.70;;
19800;SDS011;10060;48.274;12.214;2024-03-07T07:32:19;58.00;;;29.87;;
19800;SDS011;10060;48.274;12.214;2024-03-07T07:35:21;52.57;;;28.73;;
19800;SDS011;10060;48.274;12.214;2024-03-07T07:38:23;55.57;;;29.50;;
19800;SDS011;10060;48.274;12.214;2024-03-07T07:41:27;58.40;;;29.10;;
19800;SDS011;10060;48.274;12.214;2024-03-07T07:44:30;58.17;;;29.70;;
19800;SDS011;10060;48.274;12.214;2024-03-07T07:47:33;58.07;;;30.83;;
19800;SDS011;10060;48.274;12.214;2024-03-07T07:50:37;50.10;;;27.53;;
19800;SDS011;10060;48.274;12.214;2024-03-07T07:53:39;54.20;;;27.57;;
19800;SDS011;10060;48.274;12.214;2024-03-07T07:56:43;53.90;;;27.17;;
19800;SDS011;10060;48.274;12.214;2024-03-07T07:59:45;54.27;;;28.50;;
19800;SDS011;10060;48.274;12.214;2024-03-07T08:02:50;55.70;;;27.27;;
19800;SDS011;10060;48.274;12.214;2024-03-07T08:05:52;61.43;;;26.80;;
19800;SDS011;10060;48.274;12.214;2024-03-07T08:08:55;59.77;;;27.30;;
19800;SDS011;10060;48.274;12.214;2024-03-07T08:11:58;51.40;;;27.03;;
19800;SDS011;10060;48.274;12.214;2024-03-07T08:15:02;55.50;;;25.40;;
19800;SDS011;10060;48.274;12.214;2024-03-07T08:18:05;54.73;;;26.83;;
19800;SDS011;10060;48.274;12.214;2024-03-07T08:21:08;55.47;;;26.60;;
19800;SDS011;10060;48.274;12.214;2024-03-07T08:24:11;52.23;;;27.33;;
19800;SDS011;10060;48.274;12.214;2024-03-07T08:27:14;52.67;;;27.77;;
19800;SDS011;10060;48.274;12.214;2024-03-07T08:30:18;51.13;;;27.40;;
19800;SDS011;10060;48.274;12.214;2024-03-07T08:33:20;48.80;;;25.20;;
19800;SDS011;10060;48.274;12.214;2024-03-07T08:36:22;52.57;;;26.10;;
19800;SDS011;10060;48.274;12.214;2024-03-07T08:39:25;49.90;;;25.70;;
19800;SDS011;10060;48.274;12.214;2024-03-07T08:42:28;49.73;;;25.13;;
19800;SDS011;10060;48.274;12.214;2024-03-07T08:45:32;56.07;;;27.17;;
19800;SDS011;10060;48.274;12.214;2024-03-07T08:48:34;48.60;;;26.87;;
19800;SDS011;10060;48.274;12.214;2024-03-07T08:51:36;49.57;;;26.30;;
19800;SDS011;10060;48.274;12.214;2024-03-07T08:54:38;51.43;;;26.13;;
19800;SDS011;10060;48.274;12.214;2024-03-07T08:57:42;50.47;;;26.03;;
19800;SDS011;10060;48.274;12.214;2024-03-07T09:00:46;48.63;;;26.00;;
19800;SDS011;10060;48.274;12.214;2024-03-07T09:03:48;55.93;;;27.67;;
19800;SDS011;10060;48.274;12.214;2024-03-07T09:06:50;49.30;;;25.57;;
19800;SDS011;10060;48.274;12.214;2024-03-07T09:09:53;55.20;;;27.20;;
19800;SDS011;10060;48.274;12.214;2024-03-07T09:12:56;51.53;;;25.57;;
19800;SDS011;10060;48.274;12.214;2024-03-07T09:15:58;51.67;;;26.50;;
19800;SDS011;10060;48.274;12.214;2024-03-07T09:19:04;53.57;;;26.80;;
19800;SDS011;10060;48.274;12.214;2024-03-07T09:22:06;54.00;;;27.57;;
19800;SDS011;10060;48.274;12.214;2024-03-07T09:25:09;53.23;;;26.47;;
19800;SDS011;10060;48.274;12.214;2024-03-07T09:28:14;53.77;;;29.20;;
19800;SDS011;10060;48.274;12.214;2024-03-07T09:31:16;57.63;;;27.57;;
19800;SDS011;10060;48.274;12.214;2024-03-07T09:34:19;57.30;;;28.87;;
19800;SDS011;10060;48.274;12.214;2024-03-07T09:37:21;51.13;;;27.13;;
19800;SDS011;10060;48.274;12.214;2024-03-07T09:40:23;54.03;;;28.77;;
19800;SDS011;10060;48.274;12.214;2024-03-07T09:43:27;53.23;;;26.37;;
19800;SDS011;10060;48.274;12.214;2024-03-07T09:46:30;55.13;;;27.17;;
19800;SDS011;10060;48.274;12.214;2024-03-07T09:49:32;57.37;;;27.17;;
19800;SDS011;10060;48.274;12.214;2024-03-07T09:52:35;56.20;;;27.90;;
19800;SDS011;10060;48.274;12.214;2024-03-07T09:55:38;56.60;;;28.17;;
19800;SDS011;10060;48.274;12.214;2024-03-07T09:58:41;51.07;;;26.43;;
19800;SDS011;10060;48.274;12.214;2024-03-07T10:01:45;52.43;;;26.40;;
19800;SDS011;10060;48.274;12.214;2024-03-07T10:04:49;49.20;;;25.57;;
19800;SDS011;10060;48.274;12.214;2024-03-07T10:07:52;56.30;;;27.60;;
19800;SDS011;10060;48.274;12.214;2024-03-07T10:10:54;57.33;;;27.47;;
19800;SDS011;10060;48.274;12.214;2024-03-07T10:14:00;53.97;;;27.27;;
19800;SDS011;10060;48.274;12.214;2024-03-07T10:17:03;55.83;;;27.80;;
19800;SDS011;10060;48.274;12.214;2024-03-07T10:20:06;55.20;;;28.07;;
19800;SDS011;10060;48.274;12.214;2024-03-07T10:23:09;59.17;;;29.33;;
19800;SDS011;10060;48.274;12.214;2024-03-07T10:26:11;52.60;;;27.73;;
19800;SDS011;10060;48.274;12.214;2024-03-07T10:29:16;54.97;;;28.53;;
19800;SDS011;10060;48.274;12.214;2024-03-07T10:32:19;52.73;;;27.97;;
19800;SDS011;10060;48.274;12.214;2024-03-07T10:35:21;57.20;;;29.13;;
19800;SDS011;10060;48.274;12.214;2024-03-07T10:38:24;53.97;;;27.50;;
19800;SDS011;10060;48.274;12.214;2024-03-07T10:41:27;52.33;;;27.73;;
19800;SDS011;10060;48.274;12.214;2024-03-07T10:44:31;54.13;;;29.40;;
19800;SDS011;10060;48.274;12.214;2024-03-07T10:47:36;64.60;;;27.37;;
19800;SDS011;10060;48.274;12.214;2024-03-07T10:50:41;50.30;;;27.33;;
19800;SDS011;10060;48.274;12.214;2024-03-07T10:53:46;54.33;;;28.43;;
19800;SDS011;10060;48.274;12.214;2024-03-07T10:56:57;52.50;;;26.57;;
19800;SDS011;10060;48.274;12.214;2024-03-07T11:00:07;60.60;;;27.97;;
19800;SDS011;10060;48.274;12.214;2024-03-07T11:03:30;55.17;;;27.97;;
19800;SDS011;10060;48.274;12.214;2024-03-07T11:06:33;48.43;;;26.50;;
19800;SDS011;10060;48.274;12.214;2024-03-07T11:09:37;52.03;;;27.37;;
19800;SDS011;10060;48.274;12.214;2024-03-07T11:12:41;52.03;;;27.80;;
19800;SDS011;10060;48.274;12.214;2024-03-07T11:15:46;47.50;;;25.83;;
19800;SDS011;10060;48.274;12.214;2024-03-07T11:22:09;47.50;;;26.30;;
19800;SDS011;10060;48.274;12.214;2024-03-07T11:25:17;47.00;;;25.27;;
19800;SDS011;10060;48.274;12.214;2024-03-07T11:28:19;48.13;;;26.93;;
19800;SDS011;10060;48.274;12.214;2024-03-07T11:31:26;47.87;;;26.00;;
19800;SDS011;10060;48.274;12.214;2024-03-07T11:34:30;44.07;;;24.90;;
19800;SDS011;10060;48.274;12.214;2024-03-07T11:37:38;49.60;;;26.70;;
19800;SDS011;10060;48.274;12.214;2024-03-07T11:40:47;48.67;;;26.73;;
19800;SDS011;10060;48.274;12.214;2024-03-07T11:43:52;50.77;;;26.57;;
19800;SDS011;10060;48.274;12.214;2024-03-07T11:46:58;51.10;;;26.70;;
19800;SDS011;10060;48.274;12.214;2024-03-07T11:50:08;47.23;;;26.60;;
19800;SDS011;10060;48.274;12.214;2024-03-07T11:53:11;43.23;;;24.27;;
19800;SDS011;10060;48.274;12.214;2024-03-07T11:56:13;52.13;;;26.33;;
19800;SDS011;10060;48.274;12.214;2024-03-07T11:59:16;47.80;;;25.73;;
19800;SDS011;10060;48.274;12.214;2024-03-07T12:02:19;46.43;;;26.10;;
19800;SDS011;10060;48.274;12.214;2024-03-07T12:05:22;48.40;;;24.90;;
19800;SDS011;10060;48.274;12.214;2024-03-07T12:08:27;50.53;;;26.57;;
19800;SDS011;10060;48.274;12.214;2024-03-07T12:11:29;48.03;;;26.10;;
19800;SDS011;10060;48.274;12.214;2024-03-07T12:14:32;45.37;;;25.57;;
19800;SDS011;10060;48.274;12.214;2024-03-07T12:17:35;54.27;;;27.27;;
19800;SDS011;10060;48.274;12.214;2024-03-07T12:20:40;52.00;;;26.03;;
19800;SDS011;10060;48.274;12.214;2024-03-07T12:23:46;56.77;;;27.53;;
19800;SDS011;10060;48.274;12.214;2024-03-07T12:26:48;50.13;;;26.37;;
19800;SDS011;10060;48.274;12.214;2024-03-07T12:29:51;44.30;;;24.97;;
19800;SDS011;10060;48.274;12.214;2024-03-07T12:32:55;44.30;;;24.53;;
19800;SDS011;10060;48.274;12.214;2024-03-07T12:35:57;44.73;;;24.47;;
19800;SDS011;10060;48.274;12.214;2024-03-07T12:39:06;39.50;;;22.57;;
19800;SDS011;10060;48.274;12.214;2024-03-07T12:42:24;43.03;;;22.80;;
19800;SDS011;10060;48.274;12.214;2024-03-07T12:45:28;42.60;;;22.37;;
19800;SDS011;10060;48.274;12.214;2024-03-07T12:48:34;41.37;;;22.87;;
19800;SDS011;10060;48.274;12.214;2024-03-07T12:51:38;42.07;;;23.00;;
19800;SDS011;10060;48.274;12.214;2024-03-07T12:54:41;41.13;;;22.93;;
19800;SDS011;10060;48.274;12.214;2024-03-07T12:57:44;41.17;;;23.03;;
19800;SDS011;10060;48.274;12.214;2024-03-07T13:00:46;35.43;;;21.33;;
19800;SDS011;10060;48.274;12.214;2024-03-07T13:03:49;36.33;;;21.93;;
19800;SDS011;10060;48.274;12.214;2024-03-07T13:06:51;30.23;;;16.87;;
19800;SDS011;10060;48.274;12.214;2024-03-07T13:09:53;24.77;;;14.97;;
19800;SDS011;10060;48.274;12.214;2024-03-07T13:12:56;22.43;;;13.23;;
19800;SDS011;10060;48.274;12.214;2024-03-07T13:15:58;21.07;;;12.87;;
19800;SDS011;10060;48.274;12.214;2024-03-07T13:19:01;20.20;;;12.90;;
19800;SDS011;10060;48.274;12.214;2024-03-07T13:22:04;22.23;;;12.90;;
19800;SDS011;10060;48.274;12.214;2024-03-07T13:25:06;23.40;;;12.87;;
19800;SDS011;10060;48.274;12.214;2024-03-07T13:28:13;18.90;;;11.70;;
19800;SDS011;10060;48.274;12.214;2024-03-07T13:31:17;20.53;;;13.33;;
19800;SDS011;10060;48.274;12.214;2024-03-07T13:34:20;22.10;;;13.00;;
19800;SDS011;10060;48.274;12.214;2024-03-07T13:37:25;25.50;;;12.73;;
19800;SDS011;10060;48.274;12.214;2024-03-07T13:40:28;20.80;;;12.97;;
19800;SDS011;10060;48.274;12.214;2024-03-07T13:43:31;22.10;;;13.60;;
19800;SDS011;10060;48.274;12.214;2024-03-07T13:46:33;18.77;;;12.33;;
19800;SDS011;10060;48.274;12.214;2024-03-07T13:49:37;18.93;;;12.47;;
19800;SDS011;10060;48.274;12.214;2024-03-07T13:52:39;19.87;;;10.27;;
19800;SDS011;10060;48.274;12.214;2024-03-07T13:55:55;14.40;;;8.50;;
19800;SDS011;10060;48.274;12.214;2024-03-07T13:59:20;14.37;;;8.37;;
19800;SDS011;10060;48.274;12.214;2024-03-07T14:05:53;14.87;;;9.60;;
19800;SDS011;10060;48.274;12.214;2024-03-07T14:12:28;17.30;;;11.03;;
19800;SDS011;10060;48.274;12.214;2024-03-07T14:15:56;15.37;;;9.63;;
19800;SDS011;10060;48.274;12.214;2024-03-07T14:22:38;14.13;;;9.37;;
19800;SDS011;10060;48.274;12.214;2024-03-07T14:25:45;19.97;;;10.03;;
19800;SDS011;10060;48.274;12.214;2024-03-07T14:28:53;16.63;;;11.17;;
19800;SDS011;10060;48.274;12.214;2024-03-07T14:32:00;19.10;;;11.50;;
19800;SDS011;10060;48.274;12.214;2024-03-07T14:35:03;21.47;;;10.63;;
19800;SDS011;10060;48.274;12.214;2024-03-07T14:41:40;15.03;;;9.83;;
19800;SDS011;10060;48.274;12.214;2024-03-07T14:44:44;15.90;;;9.33;;
19800;SDS011;10060;48.274;12.214;2024-03-07T14:47:49;17.77;;;10.17;;
19800;SDS011;10060;48.274;12.214;2024-03-07T14:50:52;16.77;;;10.73;;
19800;SDS011;10060;48.274;12.214;2024-03-07T14:53:54;16.80;;;10.10;;
19800;SDS011;10060;48.274;12.214;2024-03-07T14:56:58;16.27;;;9.37;;
19800;SDS011;10060;48.274;12.214;2024-03-07T15:00:01;17.77;;;11.20;;
19800;SDS011;10060;48.274;12.214;2024-03-07T15:03:08;16.63;;;10.03;;
19800;SDS011;10060;48.274;12.214;2024-03-07T15:06:11;17.07;;;11.03;;
19800;SDS011;10060;48.274;12.214;2024-03-07T15:09:14;18.23;;;11.37;;
19800;SDS011;10060;48.274;12.214;2024-03-07T15:12:18;17.20;;;11.40;;
19800;SDS011;10060;48.274;12.214;2024-03-07T15:15:20;18.90;;;11.33;;
19800;SDS011;10060;48.274;12.214;2024-03-07T15:18:24;18.17;;;12.47;;
19800;SDS011;10060;48.274;12.214;2024-03-07T15:21:26;19.07;;;11.60;;
19800;SDS011;10060;48.274;12.214;2024-03-07T15:24:29;20.20;;;12.47;;
19800;SDS011;10060;48.274;12.214;2024-03-07T15:27:32;19.80;;;12.50;;
19800;SDS011;10060;48.274;12.214;2024-03-07T15:30:39;21.13;;;13.47;;
19800;SDS011;10060;48.274;12.214;2024-03-07T15:33:42;19.23;;;12.23;;
19800;SDS011;10060;48.274;12.214;2024-03-07T15:36:44;21.67;;;12.73;;
19800;SDS011;10060;48.274;12.214;2024-03-07T15:39:46;19.63;;;12.83;;
19800;SDS011;10060;48.274;12.214;2024-03-07T15:42:50;19.77;;;12.50;;
19800;SDS011;10060;48.274;12.214;2024-03-07T15:45:53;20.37;;;12.40;;
19800;SDS011;10060;48.274;12.214;2024-03-07T15:48:57;20.40;;;13.03;;
19800;SDS011;10060;48.274;12.214;2024-03-07T15:52:00;20.80;;;12.57;;
19800;SDS011;10060;48.274;12.214;2024-03-07T15:55:02;22.23;;;13.10;;
19800;SDS011;10060;48.274;12.214;2024-03-07T15:58:06;22.03;;;13.73;;
19800;SDS011;10060;48.274;12.214;2024-03-07T16:01:08;22.97;;;14.57;;
19800;SDS011;10060;48.274;12.214;2024-03-07T16:04:10;21.73;;;13.27;;
19800;SDS011;10060;48.274;12.214;2024-03-07T16:07:13;23.00;;;14.63;;
19800;SDS011;10060;48.274;12.214;2024-03-07T16:10:15;25.67;;;14.23;;
19800;SDS011;10060;48.274;12.214;2024-03-07T16:13:18;25.67;;;14.03;;
19800;SDS011;10060;48.274;12.214;2024-03-07T16:16:20;23.70;;;14.57;;
19800;SDS011;10060;48.274;12.214;2024-03-07T16:19:22;25.83;;;15.23;;
19800;SDS011;10060;48.274;12.214;2024-03-07T16:22:25;23.80;;;15.37;;
19800;SDS011;10060;48.274;12.214;2024-03-07T16:25:27;22.57;;;14.77;;
19800;SDS011;10060;48.274;12.214;2024-03-07T16:28:31;28.27;;;15.67;;
19800;SDS011;10060;48.274;12.214;2024-03-07T16:31:33;28.13;;;16.57;;
19800;SDS011;10060;48.274;12.214;2024-03-07T16:34:35;25.63;;;15.40;;
19800;SDS011;10060;48.274;12.214;2024-03-07T16:37:38;29.17;;;15.77;;
19800;SDS011;10060;48.274;12.214;2024-03-07T16:40:40;26.00;;;15.97;;
19800;SDS011;10060;48.274;12.214;2024-03-07T16:43:44;29.90;;;16.50;;
19800;SDS011;10060;48.274;12.214;2024-03-07T16:46:46;31.33;;;16.83;;
19800;SDS011;10060;48.274;12.214;2024-03-07T16:49:50;27.27;;;16.47;;
19800;SDS011;10060;48.274;12.214;2024-03-07T16:52:53;27.53;;;16.17;;
19800;SDS011;10060;48.274;12.214;2024-03-07T16:55:55;30.77;;;16.53;;
19800;SDS011;10060;48.274;12.214;2024-03-07T16:58:58;25.23;;;16.17;;
19800;SDS011;10060;48.274;12.214;2024-03-07T17:02:00;31.27;;;16.17;;
19800;SDS011;10060;48.274;12.214;2024-03-07T17:05:03;42.80;;;18.73;;
19800;SDS011;10060;48.274;12.214;2024-03-07T17:08:12;26.80;;;16.80;;
19800;SDS011;10060;48.274;12.214;2024-03-07T17:11:16;29.63;;;17.47;;
19800;SDS011;10060;48.274;12.214;2024-03-07T17:14:19;31.33;;;18.23;;
19800;SDS011;10060;48.274;12.214;2024-03-07T17:17:21;29.37;;;18.23;;
19800;SDS011;10060;48.274;12.214;2024-03-07T17:20:24;27.83;;;17.70;;
19800;SDS011;10060;48.274;12.214;2024-03-07T17:23:27;26.07;;;17.13;;
19800;SDS011;10060;48.274;12.214;2024-03-07T17:26:29;23.87;;;14.80;;
19800;SDS011;10060;48.274;12.214;2024-03-07T17:29:32;23.50;;;14.73;;
19800;SDS011;10060;48.274;12.214;2024-03-07T17:32:35;26.20;;;16.00;;
19800;SDS011;10060;48.274;12.214;2024-03-07T17:35:38;24.77;;;14.50;;
19800;SDS011;10060;48.274;12.214;2024-03-07T17:38:42;25.17;;;14.57;;
19800;SDS011;10060;48.274;12.214;2024-03-07T17:41:48;28.33;;;15.87;;
19800;SDS011;10060;48.274;12.214;2024-03-07T17:44:52;24.33;;;15.20;;
19800;SDS011;10060;48.274;12.214;2024-03-07T17:47:55;25.50;;;14.87;;
19800;SDS011;10060;48.274;12.214;2024-03-07T17:50:57;25.77;;;14.37;;
19800;SDS011;10060;48.274;12.214;2024-03-07T17:54:03;23.73;;;13.43;;